Time;durP1;ratioP1;P1;durP2;ratioP2;P2;SDS_P1;SDS_P2;PMS_P1;PMS_P2;Temp;Humidity;BMP_temperature;BMP_pressure;BME280_temperature;BME280_humidity;BME280_pressure;Samples;Min_cycle;Max_cycle;Signal;HPM_P1;HPM_P2
2023/12/20 00:01:43;;;;;;;5.72;2.85;;;;;;;8.77;81.65;99529.59;5031925;28;20045;-76
2023/12/20 00:04:10;;;;;;;9.05;3.50;;;;;;;8.76;81.79;99520.03;5031801;28;20119;-76
2023/12/20 00:06:36;;;;;;;7.85;2.88;;;;;;;8.76;81.84;99524.41;5031630;28;20504;-76
2023/12/20 00:09:03;;;;;;;8.95;3.10;;;;;;;8.74;81.61;99521.88;5031051;28;20045;-76
2023/12/20 00:11:30;;;;;;;11.82;3.67;;;;;;;8.75;81.44;99533.22;5031683;28;20050;-76
2023/12/20 00:13:56;;;;;;;9.35;3.70;;;;;;;8.73;81.57;99521.03;5016554;28;20046;-76
2023/12/20 00:16:23;;;;;;;10.77;3.00;;;;;;;8.74;81.80;99529.75;5011906;28;20104;-75
2023/12/20 00:18:49;;;;;;;11.95;3.35;;;;;;;8.72;82.04;99529.00;5011823;28;20129;-75
2023/12/20 00:21:16;;;;;;;9.75;3.28;;;;;;;8.72;81.97;99529.00;5011979;28;20050;-76
2023/12/20 00:23:42;;;;;;;6.40;3.40;;;;;;;8.72;81.86;99526.38;5012449;28;20049;-76
2023/12/20 00:26:09;;;;;;;10.25;3.38;;;;;;;8.70;81.80;99531.69;5011932;28;20132;-76
2023/12/20 00:28:36;;;;;;;9.57;3.88;;;;;;;8.71;81.92;99540.41;5011588;28;20415;-75
2023/12/20 00:31:03;;;;;;;9.55;3.85;;;;;;;8.71;82.18;99537.78;5011119;28;20041;-76
2023/12/20 00:33:29;;;;;;;10.07;3.30;;;;;;;8.71;81.78;99529.91;5011490;28;20136;-75
2023/12/20 00:35:56;;;;;;;9.07;4.20;;;;;;;8.70;82.02;99539.56;5011811;28;20085;-76
2023/12/20 00:38:23;;;;;;;10.27;4.00;;;;;;;8.69;81.83;99530.00;5015533;28;20139;-76
2023/12/20 00:40:49;;;;;;;9.85;4.00;;;;;;;8.70;81.98;99539.56;5030513;28;20547;-76
2023/12/20 00:43:16;;;;;;;7.28;3.67;;;;;;;8.71;82.11;99543.03;5019068;28;20082;-77
2023/12/20 00:45:43;;;;;;;11.63;3.70;;;;;;;8.68;81.47;99523.03;5011470;28;20142;-76
2023/12/20 00:48:09;;;;;;;5.63;3.22;;;;;;;8.68;81.51;99536.16;5010991;28;20078;-75
2023/12/20 00:50:36;;;;;;;8.20;3.63;;;;;;;8.66;81.06;99527.53;5011484;28;20129;-76
2023/12/20 00:53:03;;;;;;;5.90;3.20;;;;;;;8.64;80.62;99521.53;5011835;28;20092;-75
2023/12/20 00:55:29;;;;;;;8.27;3.47;;;;;;;8.61;80.97;99519.06;5031095;28;20143;-75
2023/12/20 00:57:56;;;;;;;9.63;3.90;;;;;;;8.58;80.84;99521.84;5030772;28;20502;-76
2023/12/20 01:00:23;;;;;;;11.27;3.85;;;;;;;8.54;80.56;99515.06;5031056;28;20489;-76
2023/12/20 01:02:51;;;;;;;17.85;4.15;;;;;;;8.50;80.77;99521.34;5030732;28;20093;-75
2023/12/20 01:05:19;;;;;;;11.60;4.30;;;;;;;8.45;80.62;99517.19;5031033;28;20053;-75
2023/12/20 01:07:46;;;;;;;8.18;3.60;;;;;;;8.42;81.02;99509.50;5030411;28;20045;-76
2023/12/20 01:10:13;;;;;;;9.63;3.38;;;;;;;8.39;80.91;99500.94;5013282;28;20119;-76
2023/12/20 01:12:40;;;;;;;11.15;3.80;;;;;;;8.36;81.19;99501.94;5030976;28;20050;-75
2023/12/20 01:15:07;;;;;;;7.45;3.40;;;;;;;8.35;81.75;99497.63;5030673;28;20608;-75
2023/12/20 01:17:33;;;;;;;9.20;3.25;;;;;;;8.34;81.62;99499.38;5013213;28;20486;-76
2023/12/20 01:20:00;;;;;;;8.52;3.28;;;;;;;8.32;81.37;99508.28;5013288;28;20053;-77
2023/12/20 01:22:27;;;;;;;10.43;3.90;;;;;;;8.31;81.24;99506.59;5030294;28;20630;-76
2023/12/20 01:24:53;;;;;;;10.38;3.40;;;;;;;8.29;80.73;99505.78;5013248;28;20107;-76
2023/12/20 01:27:20;;;;;;;10.68;3.22;;;;;;;8.26;80.45;99501.56;5028780;28;20049;-75
2023/12/20 01:29:47;;;;;;;8.82;3.28;;;;;;;8.24;80.48;99492.09;5030492;28;20061;-76
2023/12/20 01:32:13;;;;;;;8.43;3.60;;;;;;;8.20;80.71;99494.03;5030822;28;20089;-76
2023/12/20 01:34:40;;;;;;;11.82;3.28;;;;;;;8.16;80.28;99495.97;5030719;28;20060;-75
2023/12/20 01:37:07;;;;;;;16.40;3.33;;;;;;;8.11;80.37;99490.09;5030614;28;20136;-76
2023/12/20 01:39:34;;;;;;;9.70;3.20;;;;;;;8.06;80.02;99484.22;5030638;28;20046;-75
2023/12/20 01:42:00;;;;;;;7.85;2.80;;;;;;;8.02;80.00;99499.28;5030137;28;20099;-75
2023/12/20 01:44:27;;;;;;;10.50;3.25;;;;;;;7.98;80.21;99499.50;5034677;28;20053;-76
2023/12/20 01:46:54;;;;;;;11.32;3.25;;;;;;;7.94;80.39;99501.44;5034486;28;20508;-76
2023/12/20 01:49:21;;;;;;;8.80;3.30;;;;;;;7.90;80.64;99495.50;5034538;28;20053;-75
2023/12/20 01:51:49;;;;;;;13.75;3.70;;;;;;;7.86;80.67;99495.72;5016761;28;20050;-75
2023/12/20 01:54:17;;;;;;;8.77;2.95;;;;;;;7.82;80.15;99492.44;5034376;28;20069;-76
2023/12/20 01:56:43;;;;;;;11.90;3.38;;;;;;;7.78;80.19;99494.31;5029748;28;20045;-76
2023/12/20 01:59:10;;;;;;;10.85;3.25;;;;;;;7.74;80.37;99499.81;5034461;28;20056;-75
2023/12/20 02:01:37;;;;;;;10.10;3.35;;;;;;;7.71;80.51;99510.44;5004818;28;20085;-76
2023/12/20 02:04:04;;;;;;;10.50;3.63;;;;;;;7.68;80.98;99504.44;5014668;28;20056;-75
2023/12/20 02:06:33;;;;;;;12.10;3.88;;;;;;;7.66;81.35;99502.78;5014653;28;20399;-76
2023/12/20 02:09:00;;;;;;;10.60;3.20;;;;;;;7.64;81.26;99497.66;5030064;28;20136;-76
2023/12/20 02:11:27;;;;;;;12.23;3.22;;;;;;;7.64;82.07;99500.28;5033872;28;20474;-75
2023/12/20 02:13:54;;;;;;;13.63;4.88;;;;;;;7.64;82.34;99496.78;5034246;28;20057;-76
2023/12/20 02:16:22;;;;;;;13.68;3.53;;;;;;;7.64;82.64;99484.56;5034218;28;20060;-76
2023/12/20 02:18:49;;;;;;;8.65;3.60;;;;;;;7.66;82.75;99487.94;5014885;28;20046;-76
2023/12/20 02:21:15;;;;;;;10.63;4.05;;;;;;;7.69;82.79;99498.28;5014042;28;20490;-76
2023/12/20 02:23:42;;;;;;;11.85;3.50;;;;;;;7.72;83.02;99496.41;5014073;28;20081;-75
2023/12/20 02:26:08;;;;;;;11.50;3.63;;;;;;;7.74;82.58;99495.41;5014009;28;20053;-76
2023/12/20 02:28:35;;;;;;;16.05;4.60;;;;;;;7.76;82.37;99504.06;5021151;28;20514;-76
2023/12/20 02:31:02;;;;;;;16.02;4.82;;;;;;;7.79;82.64;99490.81;5013891;28;20065;-76
2023/12/20 02:33:29;;;;;;;15.02;4.03;;;;;;;7.80;82.50;99491.63;5014151;28;20057;-75
2023/12/20 02:35:56;;;;;;;9.40;4.28;;;;;;;7.81;82.25;99491.56;5013941;28;20081;-75
2023/12/20 02:38:22;;;;;;;15.10;4.47;;;;;;;7.82;82.43;99484.56;5013685;28;20046;-76
2023/12/20 02:40:49;;;;;;;13.80;4.80;;;;;;;7.84;82.43;99484.50;5031288;28;20619;-76
2023/12/20 02:43:16;;;;;;;16.98;5.30;;;;;;;7.85;82.28;99467.84;5033708;28;20127;-76
2023/12/20 02:45:43;;;;;;;14.23;5.05;;;;;;;7.86;81.88;99473.00;5033610;28;20068;-76
2023/12/20 02:48:09;;;;;;;12.93;5.25;;;;;;;7.84;81.75;99477.47;5025075;28;20042;-75
2023/12/20 02:50:36;;;;;;;17.48;5.10;;;;;;;7.84;81.65;99471.38;5013520;28;20104;-75
2023/12/20 02:53:03;;;;;;;14.10;4.90;;;;;;;7.83;81.77;99470.53;5013518;28;20042;-76
2023/12/20 02:55:29;;;;;;;21.20;5.90;;;;;;;7.82;81.55;99467.06;5013488;28;20049;-76
2023/12/20 02:57:56;;;;;;;11.82;5.75;;;;;;;7.81;81.67;99467.13;5013278;28;20050;-75
2023/12/20 03:00:22;;;;;;;16.55;5.95;;;;;;;7.79;81.16;99456.75;5013340;28;20050;-76
2023/12/20 03:02:49;;;;;;;27.58;6.50;;;;;;;7.77;81.54;99457.72;5013428;28;20475;-77
2023/12/20 03:05:16;;;;;;;14.90;4.53;;;;;;;7.76;81.65;99450.78;5027708;28;20049;-76
2023/12/20 03:07:43;;;;;;;14.45;5.43;;;;;;;7.74;81.59;99458.72;5032676;28;20046;-77
2023/12/20 03:10:10;;;;;;;15.82;5.65;;;;;;;7.73;81.52;99462.28;5033057;28;20050;-76
2023/12/20 03:12:48;;;;;;;19.58;4.93;;;;;;;7.71;80.86;99452.81;5032911;28;20057;-76
2023/12/20 03:15:15;;;;;;;12.60;5.20;;;;;;;7.69;80.84;99463.34;5032202;28;20522;-76
2023/12/20 03:17:42;;;;;;;18.73;4.97;;;;;;;7.66;80.89;99468.72;5032706;28;20053;-76
2023/12/20 03:20:09;;;;;;;15.57;4.60;;;;;;;7.63;80.93;99456.63;5032707;28;20053;-77
2023/12/20 03:22:36;;;;;;;14.80;4.43;;;;;;;7.62;80.88;99459.38;5032984;28;20061;-76
2023/12/20 03:25:02;;;;;;;16.88;4.13;;;;;;;7.59;80.98;99455.09;5026396;28;20080;-76
2023/12/20 03:27:29;;;;;;;15.60;4.18;;;;;;;7.56;80.77;99447.41;5012789;28;20145;-76
2023/12/20 03:29:56;;;;;;;17.50;4.15;;;;;;;7.54;80.86;99447.47;4995532;28;20141;-75
2023/12/20 03:32:22;;;;;;;15.88;4.22;;;;;;;7.53;81.02;99452.78;5012776;28;20546;-75
2023/12/20 03:34:49;;;;;;;17.20;4.07;;;;;;;7.50;81.19;99437.22;4996800;28;20068;-75
2023/12/20 03:37:16;;;;;;;15.65;3.70;;;;;;;7.49;81.75;99443.38;5032434;28;20076;-77
2023/12/20 03:39:42;;;;;;;16.88;4.13;;;;;;;7.48;81.63;99432.06;5032551;28;20053;-75
2023/12/20 03:42:09;;;;;;;15.52;3.92;;;;;;;7.49;82.21;99440.78;5032217;28;20494;-76
2023/12/20 03:44:39;;;;;;;23.45;4.32;;;;;;;7.48;81.77;99433.84;5032296;28;20049;-76
2023/12/20 03:47:06;;;;;;;19.95;4.65;;;;;;;7.50;81.83;99430.22;5022164;28;20148;-76
2023/12/20 03:49:32;;;;;;;13.82;4.45;;;;;;;7.52;81.90;99427.53;4995011;28;20487;-76
2023/12/20 03:51:59;;;;;;;17.17;3.55;;;;;;;7.54;82.23;99425.66;5012400;28;20132;-76
2023/12/20 03:54:26;;;;;;;14.75;4.00;;;;;;;7.55;82.14;99425.59;5012500;28;20046;-75
2023/12/20 03:56:52;;;;;;;9.98;3.35;;;;;;;7.57;82.20;99430.75;5017338;28;20092;-76
2023/12/20 03:59:19;;;;;;;18.85;3.78;;;;;;;7.58;82.20;99427.22;5032063;28;20065;-76
2023/12/20 04:01:45;;;;;;;12.90;3.45;;;;;;;7.59;81.92;99426.28;5031749;28;20053;-76
2023/12/20 04:04:13;;;;;;;15.30;3.30;;;;;;;7.60;81.77;99429.75;5031349;28;20132;-76
2023/12/20 04:06:40;;;;;;;16.13;4.28;;;;;;;7.61;82.11;99436.69;5023680;28;20050;-76
2023/12/20 04:09:09;;;;;;;13.23;3.70;;;;;;;7.59;81.77;99431.53;5031973;28;20053;-76
2023/12/20 04:11:36;;;;;;;17.27;3.72;;;;;;;7.60;81.88;99440.25;5031615;28;20076;-76
2023/12/20 04:14:04;;;;;;;13.45;3.67;;;;;;;7.60;81.60;99443.72;5031734;28;20053;-76
2023/12/20 04:16:31;;;;;;;13.48;3.70;;;;;;;7.63;82.06;99424.38;5031242;28;20045;-76
2023/12/20 04:18:58;;;;;;;10.57;3.22;;;;;;;7.62;82.05;99420.91;5016014;28;20050;-76
2023/12/20 04:21:24;;;;;;;12.88;3.10;;;;;;;7.65;82.28;99426.00;5016808;28;20049;-75
2023/12/20 04:23:51;;;;;;;20.88;3.80;;;;;;;7.65;81.80;99433.00;5031795;28;20049;-76
2023/12/20 04:26:17;;;;;;;14.43;2.75;;;;;;;7.67;82.08;99436.41;5031441;28;20046;-76
2023/12/20 04:28:44;;;;;;;15.98;3.40;;;;;;;7.66;81.88;99435.53;5018960;28;20054;-76
2023/12/20 04:31:10;;;;;;;16.67;4.15;;;;;;;7.66;81.84;99432.91;5011778;28;20104;-76
2023/12/20 04:33:37;;;;;;;19.92;3.67;;;;;;;7.67;81.86;99436.41;5011887;28;20052;-76
2023/12/20 04:36:04;;;;;;;18.55;3.25;;;;;;;7.68;81.70;99433.72;5011771;28;20139;-76
2023/12/20 04:38:31;;;;;;;15.48;3.50;;;;;;;7.69;81.73;99427.53;5019214;28;20518;-76
2023/12/20 04:40:57;;;;;;;26.17;3.72;;;;;;;7.69;81.55;99424.06;5011604;28;20085;-75
2023/12/20 04:43:24;;;;;;;10.38;2.47;;;;;;;7.70;82.00;99420.50;5011357;28;20570;-75
2023/12/20 04:45:51;;;;;;;19.63;3.50;;;;;;;7.72;81.69;99415.19;5011760;28;20399;-77
2023/12/20 04:48:18;;;;;;;18.77;3.50;;;;;;;7.72;81.88;99421.28;5011851;28;20454;-75
2023/12/20 04:50:44;;;;;;;22.05;4.20;;;;;;;7.73;81.69;99422.16;5031114;28;20053;-76
2023/12/20 04:53:11;;;;;;;19.20;3.45;;;;;;;7.73;81.83;99419.53;5031158;28;20107;-76
2023/12/20 04:55:39;;;;;;;16.45;2.92;;;;;;;7.73;81.53;99417.75;5031083;28;20107;-76
2023/12/20 04:58:05;;;;;;;22.92;4.05;;;;;;;7.75;81.72;99422.91;5026141;28;20441;-75
2023/12/20 05:00:32;;;;;;;13.15;3.30;;;;;;;7.75;81.72;99425.53;5027790;28;20049;-75
2023/12/20 05:02:59;;;;;;;16.95;3.67;;;;;;;7.75;82.06;99425.53;5031128;28;20675;-75
2023/12/20 05:05:25;;;;;;;19.08;3.75;;;;;;;7.77;81.88;99415.78;5013565;28;20061;-76
2023/12/20 05:07:52;;;;;;;25.02;4.95;;;;;;;7.78;81.82;99418.34;5030387;28;20059;-75
2023/12/20 05:10:19;;;;;;;18.67;3.80;;;;;;;7.79;81.63;99400.84;5011400;28;20089;-75
2023/12/20 05:12:45;;;;;;;20.35;4.60;;;;;;;7.80;81.61;99411.25;5011169;28;20205;-76
2023/12/20 05:15:12;;;;;;;15.15;4.47;;;;;;;7.80;81.81;99416.50;5011021;28;20062;-76
2023/12/20 05:17:39;;;;;;;14.75;3.78;;;;;;;7.83;81.97;99420.75;5021937;28;20049;-76
2023/12/20 05:20:06;;;;;;;18.38;4.93;;;;;;;7.83;81.90;99415.50;5019395;28;20423;-76
2023/12/20 05:22:33;;;;;;;17.05;4.18;;;;;;;7.85;81.75;99413.63;4993588;28;20068;-76
2023/12/20 05:24:59;;;;;;;15.15;3.92;;;;;;;7.86;81.74;99417.97;5011066;28;20053;-76
2023/12/20 05:27:26;;;;;;;15.50;4.07;;;;;;;7.86;81.75;99415.34;5010715;28;20144;-76
2023/12/20 05:29:52;;;;;;;12.90;3.53;;;;;;;7.88;81.97;99394.28;5016976;28;20045;-77
2023/12/20 05:32:19;;;;;;;23.33;4.38;;;;;;;7.88;81.83;99399.53;5030142;28;20096;-77
2023/12/20 05:34:46;;;;;;;28.02;4.72;;;;;;;7.87;81.63;99406.56;5030676;28;20053;-75
2023/12/20 05:37:12;;;;;;;17.52;4.10;;;;;;;7.89;81.63;99411.72;5012979;28;20132;-76
2023/12/20 05:39:39;;;;;;;19.27;4.85;;;;;;;7.87;81.33;99403.94;5014362;28;20061;-76
2023/12/20 05:42:06;;;;;;;15.45;4.10;;;;;;;7.87;81.38;99409.19;5010901;28;20096;-76
2023/12/20 05:44:32;;;;;;;16.63;4.43;;;;;;;7.89;81.39;99414.34;5011098;28;20058;-76
2023/12/20 05:46:59;;;;;;;21.73;4.15;;;;;;;7.90;81.46;99416.88;5010727;28;20495;-76
2023/12/20 05:49:25;;;;;;;21.83;3.83;;;;;;;7.90;81.77;99411.66;5021499;28;20045;-76
2023/12/20 05:51:52;;;;;;;15.40;3.90;;;;;;;7.92;81.51;99408.94;5030376;28;20072;-76
2023/12/20 05:54:18;;;;;;;12.55;3.88;;;;;;;7.92;81.61;99419.41;5030410;28;20441;-77
2023/12/20 05:56:45;;;;;;;16.75;5.28;;;;;;;7.93;81.71;99410.63;5030370;28;20064;-76
2023/12/20 05:59:11;;;;;;;19.70;4.07;;;;;;;7.93;81.51;99410.63;5024457;28;20442;-77
2023/12/20 06:01:38;;;;;;;23.77;4.95;;;;;;;7.93;81.70;99415.88;5010856;28;20054;-78
2023/12/20 06:04:04;;;;;;;18.48;5.32;;;;;;;7.93;81.37;99410.63;5010497;28;20453;-76
2023/12/20 06:06:31;;;;;;;14.25;4.28;;;;;;;7.94;81.64;99404.47;5010327;28;20523;-76
2023/12/20 06:08:58;;;;;;;20.73;5.18;;;;;;;7.93;81.63;99411.47;5011215;28;20053;-76
2023/12/20 06:11:25;;;;;;;19.85;5.55;;;;;;;7.95;81.21;99414.88;5029757;28;20083;-75
2023/12/20 06:13:53;;;;;;;17.02;5.07;;;;;;;7.97;81.50;99398.22;5012814;28;20045;-76
2023/12/20 06:16:19;;;;;;;21.17;5.10;;;;;;;7.98;81.52;99407.75;5030306;28;20134;-76
2023/12/20 06:18:46;;;;;;;20.60;4.72;;;;;;;7.97;81.66;99411.31;5030011;28;20099;-75
2023/12/20 06:21:14;;;;;;;22.38;5.43;;;;;;;7.98;81.28;99415.63;5013296;28;20056;-76
2023/12/20 06:23:41;;;;;;;17.88;5.05;;;;;;;7.98;81.34;99416.50;5010393;28;20050;-76
2023/12/20 06:26:07;;;;;;;25.73;5.55;;;;;;;7.99;81.27;99418.16;5010760;28;20487;-76
2023/12/20 06:28:34;;;;;;;24.60;5.53;;;;;;;8.01;81.62;99420.72;5012579;28;20495;-76
2023/12/20 06:31:00;;;;;;;25.45;5.53;;;;;;;8.00;81.38;99412.00;5014613;28;20049;-76
2023/12/20 06:33:27;;;;;;;19.60;5.07;;;;;;;8.01;81.42;99413.72;5013927;28;20081;-76
2023/12/20 06:35:54;;;;;;;21.35;5.15;;;;;;;8.03;81.21;99406.59;5014062;28;20050;-76
2023/12/20 06:38:21;;;;;;;20.42;5.00;;;;;;;8.03;81.25;99414.47;5013896;28;20132;-76
2023/12/20 06:40:47;;;;;;;15.75;4.60;;;;;;;8.04;81.11;99410.09;5027799;28;20095;-76
2023/12/20 06:43:14;;;;;;;15.23;4.40;;;;;;;8.04;81.16;99399.59;5033415;28;20459;-75
2023/12/20 06:46:01;;;;;;;19.67;5.20;;;;;;;8.04;80.71;99395.19;5033668;28;20061;-76
2023/12/20 06:48:27;;;;;;;24.58;5.13;;;;;;;8.03;80.73;99401.34;5077883;22;20084;-79
2023/12/20 06:50:54;;;;;;;26.92;5.45;;;;;;;8.04;80.98;99396.97;5027859;28;20117;-79
2023/12/20 06:53:20;;;;;;;15.55;4.45;;;;;;;8.04;80.98;99389.13;5014290;28;20474;-80
2023/12/20 06:55:47;;;;;;;19.27;5.20;;;;;;;8.05;81.14;99382.94;5014215;28;20080;-79
2023/12/20 06:58:14;;;;;;;22.15;4.72;;;;;;;8.06;80.85;99387.25;5013968;28;20112;-80
2023/12/20 07:00:40;;;;;;;23.55;4.65;;;;;;;8.06;80.83;99382.00;5021717;28;20069;-83
2023/12/20 07:03:07;;;;;;;24.85;4.60;;;;;;;8.07;81.02;99381.06;5014355;28;20137;-81
2023/12/20 07:05:33;;;;;;;19.13;4.43;;;;;;;8.07;80.76;99384.53;5013991;28;20100;-81
2023/12/20 07:08:00;;;;;;;19.55;4.50;;;;;;;8.10;81.14;99385.34;5014087;28;20049;-80
2023/12/20 07:10:27;;;;;;;18.45;4.45;;;;;;;8.10;81.03;99386.16;5014332;28;20490;-76
2023/12/20 07:12:54;;;;;;;22.83;4.25;;;;;;;8.10;80.85;99380.91;5028229;28;20049;-78
2023/12/20 07:15:22;;;;;;;18.65;3.90;;;;;;;8.12;81.01;99379.06;5032601;28;20052;-81
2023/12/20 07:17:48;;;;;;;21.33;4.35;;;;;;;8.10;80.67;99388.78;5031777;28;20162;-78
2023/12/20 07:20:16;;;;;;;19.98;4.43;;;;;;;8.11;80.50;99360.81;5032493;28;20054;-77
2023/12/20 07:22:43;;;;;;;29.52;5.05;;;;;;;8.10;80.56;99377.47;5027253;28;20498;-79
2023/12/20 07:25:10;;;;;;;21.15;3.83;;;;;;;8.09;80.71;99381.84;5032429;28;20049;-79
2023/12/20 07:27:37;;;;;;;15.65;3.63;;;;;;;8.08;80.51;99367.06;5032663;28;20084;-78
2023/12/20 07:30:04;;;;;;;30.88;4.95;;;;;;;8.09;79.87;99381.84;5032741;28;20486;-75
2023/12/20 07:32:31;;;;;;;13.77;3.55;;;;;;;8.07;80.46;99371.44;5032928;28;20077;-77
2023/12/20 07:34:59;;;;;;;16.38;4.13;;;;;;;8.10;80.83;99377.47;5032709;28;20747;-76
2023/12/20 07:37:26;;;;;;;31.27;4.00;;;;;;;8.09;80.45;99381.84;5008038;28;20081;-76
2023/12/20 07:39:52;;;;;;;18.05;3.88;;;;;;;8.11;80.72;99374.72;5013169;28;20053;-77
2023/12/20 07:42:19;;;;;;;16.88;3.47;;;;;;;8.13;80.50;99377.28;5012723;28;20103;-77
2023/12/20 07:44:46;;;;;;;16.98;3.42;;;;;;;8.13;80.60;99382.53;5013296;28;20054;-77
2023/12/20 07:47:16;;;;;;;23.17;4.03;;;;;;;8.14;80.12;99386.84;5012611;28;20146;-78
2023/12/20 07:49:44;;;;;;;24.55;3.55;;;;;;;8.15;80.69;99375.44;5012745;28;20529;-78
2023/12/20 07:52:11;;;;;;;29.42;5.07;;;;;;;8.16;80.39;99390.22;5012586;28;20053;-74
2023/12/20 07:54:37;;;;;;;19.08;3.67;;;;;;;8.14;80.06;99386.84;5012498;28;20057;-76
2023/12/20 07:57:04;;;;;;;17.65;4.35;;;;;;;8.13;80.23;99380.75;5012361;28;20096;-73
2023/12/20 07:59:30;;;;;;;14.82;3.85;;;;;;;8.14;80.07;99377.19;4995061;28;20108;-79
2023/12/20 08:01:58;;;;;;;21.20;4.97;;;;;;;8.16;80.42;99377.13;5012368;28;20058;-77
2023/12/20 08:04:26;;;;;;;19.83;3.47;;;;;;;8.18;80.25;99373.50;4995020;28;20533;-76
2023/12/20 08:06:53;;;;;;;18.30;3.85;;;;;;;8.17;80.27;99369.19;5012146;28;20057;-74
2023/12/20 08:09:19;;;;;;;21.38;3.83;;;;;;;8.19;80.05;99363.88;5012110;28;20058;-75
2023/12/20 08:11:47;;;;;;;20.08;4.78;;;;;;;8.19;80.16;99374.34;5011936;28;20049;-76
2023/12/20 08:14:14;;;;;;;23.83;4.05;;;;;;;8.21;80.44;99368.09;5012347;28;20053;-76
2023/12/20 08:16:41;;;;;;;15.02;4.20;;;;;;;8.21;80.00;99373.34;4994739;28;20060;-77
2023/12/20 08:19:08;;;;;;;14.50;3.28;;;;;;;8.25;80.36;99362.66;5012100;28;20159;-77
2023/12/20 08:21:34;;;;;;;25.13;4.45;;;;;;;8.25;80.03;99365.28;5012193;28;20132;-78
2023/12/20 08:24:04;;;;;;;20.30;4.45;;;;;;;8.25;79.87;99358.28;4994837;28;20065;-77
2023/12/20 08:26:33;;;;;;;23.15;4.85;;;;;;;8.25;79.59;99373.16;5011903;28;20395;-76
2023/12/20 08:28:59;;;;;;;19.77;4.45;;;;;;;8.27;80.14;99373.94;5011793;28;20499;-74
2023/12/20 08:31:28;;;;;;;18.35;3.67;;;;;;;8.30;80.04;99365.91;5011795;28;20065;-72
2023/12/20 08:33:54;;;;;;;22.77;5.13;;;;;;;8.30;80.15;99365.91;5012147;28;20092;-76
2023/12/20 08:36:23;;;;;;;21.15;4.25;;;;;;;8.31;80.36;99380.72;5011841;28;20052;-77
2023/12/20 08:38:50;;;;;;;20.23;4.00;;;;;;;8.35;80.57;99371.75;4993960;28;20056;-78
2023/12/20 08:41:17;;;;;;;18.38;3.72;;;;;;;8.35;80.51;99356.00;5011875;28;20053;-74
2023/12/20 08:43:44;;;;;;;17.70;3.67;;;;;;;8.37;80.40;99363.78;5011873;28;20046;-77
2023/12/20 08:46:11;;;;;;;15.65;3.60;;;;;;;8.39;80.23;99354.91;5011717;28;20054;-79
2023/12/20 08:48:38;;;;;;;17.65;4.95;;;;;;;8.40;80.19;99371.47;5011521;28;20045;-77
2023/12/20 08:51:08;;;;;;;21.42;3.92;;;;;;;8.41;79.91;99350.41;5011103;28;20120;-76
2023/12/20 08:53:34;;;;;;;14.43;3.28;;;;;;;8.42;79.93;99341.63;5011294;28;20136;-77
2023/12/20 08:56:01;;;;;;;22.88;4.75;;;;;;;8.45;79.99;99353.75;5011598;28;20050;-77
2023/12/20 08:58:28;;;;;;;22.10;4.63;;;;;;;8.41;79.76;99347.78;4993933;28;20054;-77
2023/12/20 09:00:55;;;;;;;21.63;4.70;;;;;;;8.43;80.22;99345.09;4994145;28;20053;-76
2023/12/20 09:03:22;;;;;;;19.05;4.32;;;;;;;8.44;79.99;99346.78;4993878;28;20057;-77
2023/12/20 09:05:48;;;;;;;20.70;4.00;;;;;;;8.43;80.21;99343.31;5011333;28;20465;-77
2023/12/20 09:08:15;;;;;;;25.52;5.30;;;;;;;8.45;79.83;99348.50;5011586;28;20042;-76
2023/12/20 09:10:42;;;;;;;18.55;4.43;;;;;;;8.45;80.31;99338.00;5011324;28;20046;-77
2023/12/20 09:13:09;;;;;;;18.10;3.88;;;;;;;8.43;80.20;99335.47;4993793;28;20053;-76
2023/12/20 09:15:36;;;;;;;17.98;4.30;;;;;;;8.45;80.50;99341.44;4993859;28;20132;-77
2023/12/20 09:18:03;;;;;;;25.23;4.55;;;;;;;8.46;80.22;99337.88;4993563;28;20065;-77
2023/12/20 09:20:31;;;;;;;25.13;4.60;;;;;;;8.47;80.48;99329.13;5011196;28;20096;-76
2023/12/20 09:22:58;;;;;;;20.95;4.28;;;;;;;8.48;80.54;99333.41;5011194;28;20502;-77
2023/12/20 09:25:25;;;;;;;18.42;4.22;;;;;;;8.51;80.34;99331.53;5011550;28;20108;-76
2023/12/20 09:27:52;;;;;;;19.73;4.05;;;;;;;8.51;80.19;99334.16;5011273;28;20096;-76
2023/12/20 09:30:20;;;;;;;17.33;4.18;;;;;;;8.51;80.09;99326.28;5010979;28;20061;-75
2023/12/20 09:32:54;;;;;;;27.88;4.20;;;;;;;8.51;80.29;99326.28;4994544;28;20054;-76
2023/12/20 09:35:21;;;;;;;23.27;3.78;;;;;;;8.48;80.13;99312.44;5010886;28;20053;-79
2023/12/20 09:37:48;;;;;;;15.02;3.58;;;;;;;8.46;80.07;99329.19;5011024;28;20046;-75
2023/12/20 09:40:18;;;;;;;25.25;5.47;;;;;;;8.42;78.83;99319.81;5011048;28;20057;-77
2023/12/20 09:42:57;;;;;;;22.55;5.20;;;;;;;8.41;79.61;99326.81;5011077;28;20104;-75
2023/12/20 09:45:24;;;;;;;21.90;4.55;;;;;;;8.43;80.60;99338.09;5010988;28;20084;-76
2023/12/20 09:47:53;;;;;;;21.70;4.70;;;;;;;8.42;80.45;99344.25;5010966;28;20050;-76
2023/12/20 09:50:20;;;;;;;21.05;4.47;;;;;;;8.43;80.87;99343.31;5010891;28;20050;-78
2023/12/20 09:52:52;;;;;;;19.50;4.82;;;;;;;8.42;80.46;99340.78;4993398;28;20050;-72
2023/12/20 09:55:20;;;;;;;17.15;4.10;;;;;;;8.43;80.82;99343.31;5010944;28;20054;-76
2023/12/20 09:57:50;;;;;;;24.27;5.47;;;;;;;8.41;80.51;99357.47;4993609;28;20050;-76
2023/12/20 10:00:17;;;;;;;23.45;5.10;;;;;;;8.43;81.04;99345.94;5010961;28;20124;-76
2023/12/20 10:02:57;;;;;;;21.42;5.03;;;;;;;8.39;80.43;99349.66;5011991;28;20042;-76
2023/12/20 10:05:29;;;;;;;17.10;4.05;;;;;;;8.39;80.72;99352.28;4997393;28;20131;-75
2023/12/20 10:07:56;;;;;;;24.00;4.88;;;;;;;8.43;81.33;99348.56;5014373;28;20498;-76
2023/12/20 10:10:23;;;;;;;18.35;4.47;;;;;;;8.43;81.41;99347.72;4996837;28;20453;-73
2023/12/20 10:13:08;;;;;;;20.83;4.78;;;;;;;8.41;80.74;99353.03;4998912;28;20049;-77
2023/12/20 10:15:36;;;;;;;17.63;3.97;;;;;;;8.45;81.53;99341.44;5014512;28;20069;-78
2023/12/20 10:18:04;;;;;;;13.35;3.70;;;;;;;8.47;81.77;99349.25;4996701;28;20495;-76
2023/12/20 10:20:31;;;;;;;15.98;3.80;;;;;;;8.48;81.51;99336.03;4996798;28;20046;-74
2023/12/20 10:22:59;;;;;;;14.25;3.38;;;;;;;8.51;81.84;99345.53;5014114;28;20150;-76
2023/12/20 10:25:26;;;;;;;14.98;3.60;;;;;;;8.53;81.58;99342.84;5014345;28;20128;-76
2023/12/20 10:28:12;;;;;;;12.57;3.65;;;;;;;8.51;80.98;99344.66;4996647;28;20495;-74
2023/12/20 10:30:41;;;;;;;10.60;3.10;;;;;;;8.56;81.66;99350.56;5014005;28;20517;-76
2023/12/20 10:33:09;;;;;;;16.75;3.50;;;;;;;8.57;81.67;99341.75;4996531;28;20042;-78
2023/12/20 10:35:38;;;;;;;16.88;3.58;;;;;;;8.56;81.22;99343.50;5014041;28;20410;-76
2023/12/20 10:38:11;;;;;;;20.27;4.30;;;;;;;8.59;81.40;99337.25;4997203;28;20083;-75
2023/12/20 10:40:38;;;;;;;14.65;3.65;;;;;;;8.61;81.35;99332.78;5013947;28;20053;-74
2023/12/20 10:43:05;;;;;;;18.15;3.55;;;;;;;8.62;81.44;99321.34;4996661;28;20057;-75
2023/12/20 10:45:33;;;;;;;12.23;3.17;;;;;;;8.64;81.30;99310.75;5013817;28;20158;-76
2023/12/20 10:48:01;;;;;;;16.65;3.50;;;;;;;8.64;81.47;99301.13;5013746;28;20054;-75
2023/12/20 10:50:29;;;;;;;12.30;3.42;;;;;;;8.66;81.64;99320.25;5013658;28;20053;-81
2023/12/20 10:52:58;;;;;;;18.33;3.72;;;;;;;8.67;81.70;99303.56;5013679;28;20046;-78
2023/12/20 10:55:25;;;;;;;17.30;4.07;;;;;;;8.70;82.16;99295.53;5013857;28;20049;-77
2023/12/20 10:57:59;;;;;;;16.05;3.88;;;;;;;8.73;81.85;99305.84;5013496;28;20054;-75
2023/12/20 11:00:28;;;;;;;11.20;2.83;;;;;;;8.78;81.98;99296.88;5013510;28;20045;-76
2023/12/20 11:02:59;;;;;;;12.70;3.20;;;;;;;8.81;81.98;99297.53;5013676;28;20544;-77
2023/12/20 11:05:36;;;;;;;15.63;3.72;;;;;;;8.85;81.35;99304.31;4996337;28;20049;-77
2023/12/20 11:08:11;;;;;;;17.40;4.72;;;;;;;8.88;80.61;99308.53;5013570;28;20046;-74
2023/12/20 11:10:46;;;;;;;15.30;3.50;;;;;;;8.93;80.92;99295.97;5013840;28;20050;-76
2023/12/20 11:13:20;;;;;;;19.45;3.70;;;;;;;8.93;80.53;99298.59;5012990;28;20046;-77
2023/12/20 11:15:47;;;;;;;12.52;3.40;;;;;;;8.97;80.63;99287.00;5013503;28;20050;-75
2023/12/20 11:18:15;;;;;;;12.95;2.95;;;;;;;8.99;80.76;99292.16;5013188;28;20042;-76
2023/12/20 11:20:42;;;;;;;15.38;3.72;;;;;;;8.99;80.80;99282.50;4995508;28;20584;-78
2023/12/20 11:23:09;;;;;;;16.40;3.55;;;;;;;9.01;80.69;99292.06;4995849;28;20120;-77
2023/12/20 11:25:58;;;;;;;18.42;4.10;;;;;;;8.96;79.05;99290.56;5012952;28;20099;-77
2023/12/20 11:28:26;;;;;;;14.07;3.53;;;;;;;8.98;79.89;99304.44;4995482;28;20502;-76
2023/12/20 11:31:01;;;;;;;14.00;3.58;;;;;;;8.98;80.01;99308.84;5013065;28;20050;-77
2023/12/20 11:33:36;;;;;;;15.52;4.13;;;;;;;8.97;79.74;99287.00;4995456;28;20135;-78
2023/12/20 11:36:03;;;;;;;16.15;3.47;;;;;;;8.98;80.74;99286.06;4995403;28;20058;-78